Time;durP1;ratioP1;P1;durP2;ratioP2;P2;SDS_P1;SDS_P2;PMS_P1;PMS_P2;Temp;Humidity;BMP_temperature;BMP_pressure;BME280_temperature;BME280_humidity;BME280_pressure;Samples;Min_cycle;Max_cycle;Signal;HPM_P1;HPM_P2
2022/03/14 06:00:53;;;;;;;0.80;0.80;;;10.70;97.20;;;;;;1701044;29;20225;-69
2022/03/14 06:01:44;;;;;;;0.85;0.77;;;10.70;97.20;;;;;;1700739;29;20207;-69
2022/03/14 06:02:36;;;;;;;1.77;1.00;;;10.70;97.20;;;;;;1701266;29;20246;-69
2022/03/14 06:03:27;;;;;;;1.00;0.90;;;10.70;97.20;;;;;;1700882;29;20198;-69
2022/03/14 06:04:19;;;;;;;1.00;0.90;;;10.70;97.20;;;;;;1701076;29;20298;-69
2022/03/14 06:05:10;;;;;;;1.52;0.80;;;10.80;97.20;;;;;;1701147;29;20678;-69
2022/03/14 06:06:02;;;;;;;1.00;0.90;;;10.80;97.20;;;;;;1701011;29;20568;-69
2022/03/14 06:06:53;;;;;;;1.23;0.90;;;10.80;97.20;;;;;;1701269;29;20578;-70
2022/03/14 06:07:45;;;;;;;1.25;0.90;;;10.80;97.20;;;;;;1701128;29;20199;-69
2022/03/14 06:08:36;;;;;;;1.45;0.80;;;10.80;97.20;;;;;;1700869;29;20215;-69
2022/03/14 06:09:29;;;;;;;0.97;0.77;;;10.80;97.20;;;;;;1700967;29;20209;-69
2022/03/14 06:10:21;;;;;;;1.10;1.00;;;10.70;97.20;;;;;;1700859;29;20671;-70
2022/03/14 06:11:12;;;;;;;0.90;0.80;;;10.70;97.20;;;;;;1701046;29;20203;-69
2022/03/14 06:12:04;;;;;;;0.90;0.80;;;10.80;97.20;;;;;;1701140;29;20211;-69
2022/03/14 06:12:55;;;;;;;2.85;0.80;;;10.80;97.20;;;;;;1701186;29;20297;-69
2022/03/14 06:13:47;;;;;;;0.80;0.70;;;10.80;97.20;;;;;;1700983;29;20218;-69
2022/03/14 06:14:38;;;;;;;1.20;1.10;;;10.80;97.20;;;;;;1700900;29;20247;-69
2022/03/14 06:15:30;;;;;;;1.10;1.00;;;10.90;97.20;;;;;;1700731;29;20215;-69
2022/03/14 06:16:22;;;;;;;1.02;0.93;;;10.90;97.20;;;;;;1700774;29;20274;-69
2022/03/14 06:17:14;;;;;;;1.10;1.00;;;10.90;97.20;;;;;;1700786;29;20219;-69
2022/03/14 06:18:05;;;;;;;0.82;0.80;;;10.90;97.20;;;;;;1700555;29;20238;-69
2022/03/14 06:18:57;;;;;;;0.90;0.80;;;10.90;97.20;;;;;;1700912;29;20206;-69
2022/03/14 06:19:48;;;;;;;1.08;0.98;;;10.90;97.20;;;;;;1700768;29;20235;-69
2022/03/14 06:20:39;;;;;;;1.02;0.93;;;10.90;97.20;;;;;;1700865;29;20210;-69
2022/03/14 06:21:31;;;;;;;1.77;0.90;;;10.90;97.20;;;;;;1701076;29;20580;-69
2022/03/14 06:22:24;;;;;;;1.15;0.98;;;10.90;97.20;;;;;;1700957;29;20239;-69
2022/03/14 06:23:16;;;;;;;1.10;1.00;;;10.90;97.20;;;;;;1700971;29;20591;-69
2022/03/14 06:24:09;;;;;;;1.15;1.05;;;10.90;97.20;;;;;;1700676;29;20255;-69
2022/03/14 06:25:01;;;;;;;1.10;0.90;;;10.90;97.20;;;;;;1701064;29;20211;-69
2022/03/14 06:25:54;;;;;;;0.95;0.82;;;10.90;97.20;;;;;;1700991;29;20234;-69
2022/03/14 06:26:45;;;;;;;1.00;0.90;;;11.00;97.20;;;;;;1701161;29;20269;-69
2022/03/14 06:27:37;;;;;;;0.90;0.80;;;11.00;97.20;;;;;;1702386;29;20258;-69
2022/03/14 06:28:28;;;;;;;1.33;1.00;;;10.90;97.20;;;;;;1701851;29;20207;-69
2022/03/14 06:29:20;;;;;;;1.50;1.10;;;10.90;97.20;;;;;;1702198;29;20270;-69
2022/03/14 06:30:11;;;;;;;1.10;1.00;;;10.90;97.20;;;;;;1701052;29;20214;-70
2022/03/14 06:31:03;;;;;;;1.27;1.17;;;10.90;97.20;;;;;;1702091;29;20285;-70
2022/03/14 06:31:55;;;;;;;1.30;1.08;;;10.90;97.20;;;;;;1702236;29;20336;-70
2022/03/14 06:32:48;;;;;;;1.13;0.90;;;10.90;97.20;;;;;;1701821;29;20206;-69
2022/03/14 06:33:39;;;;;;;1.10;0.90;;;11.00;97.20;;;;;;1703820;29;20291;-69
2022/03/14 06:34:31;;;;;;;1.53;1.10;;;11.00;97.20;;;;;;1706227;28;20206;-68
2022/03/14 06:35:22;;;;;;;1.38;1.20;;;11.00;97.20;;;;;;1701238;29;20294;-69
2022/03/14 06:36:14;;;;;;;1.42;0.85;;;11.00;97.20;;;;;;1705683;29;20636;-69
2022/03/14 06:37:07;;;;;;;1.00;0.90;;;11.00;97.20;;;;;;1707792;28;20214;-69
2022/03/14 06:37:58;;;;;;;1.20;1.10;;;11.00;97.20;;;;;;1707829;28;20591;-69
2022/03/14 06:38:49;;;;;;;1.10;1.00;;;11.00;97.20;;;;;;1707410;28;20234;-70
2022/03/14 06:39:41;;;;;;;1.03;0.93;;;11.00;97.20;;;;;;1707740;28;20205;-69
2022/03/14 06:40:31;;;;;;;1.20;1.10;;;11.00;97.20;;;;;;1706270;28;20230;-68
2022/03/14 06:41:23;;;;;;;1.10;0.90;;;11.00;97.20;;;;;;1707817;28;20198;-67
2022/03/14 06:42:14;;;;;;;1.00;0.90;;;11.00;97.20;;;;;;1700074;28;20203;-67
2022/03/14 06:43:06;;;;;;;1.20;1.10;;;11.00;97.20;;;;;;1700107;29;20302;-67
2022/03/14 06:43:57;;;;;;;1.02;0.93;;;11.00;97.20;;;;;;1701436;29;20203;-67
2022/03/14 06:44:50;;;;;;;0.95;0.80;;;10.90;97.20;;;;;;1700667;29;20578;-67
2022/03/14 06:45:41;;;;;;;1.63;0.90;;;10.90;97.20;;;;;;1701553;29;20214;-67
2022/03/14 06:46:33;;;;;;;1.00;0.85;;;10.90;97.20;;;;;;1695026;29;20203;-67
2022/03/14 06:47:25;;;;;;;0.90;0.80;;;10.80;97.20;;;;;;1700678;29;20199;-67
2022/03/14 06:48:16;;;;;;;1.00;0.90;;;10.70;97.20;;;;;;1701307;29;20203;-67
2022/03/14 06:49:07;;;;;;;0.82;0.70;;;10.70;97.20;;;;;;1701830;29;20230;-67
2022/03/14 06:49:59;;;;;;;1.20;0.93;;;10.70;97.20;;;;;;1701847;29;20214;-67
2022/03/14 06:50:50;;;;;;;1.10;0.80;;;10.60;97.20;;;;;;1703066;29;20199;-68
2022/03/14 06:51:42;;;;;;;1.20;0.83;;;10.60;97.20;;;;;;1707336;29;20208;-67
2022/03/14 06:52:33;;;;;;;1.13;1.02;;;10.60;97.20;;;;;;1703432;28;20206;-67
2022/03/14 06:53:25;;;;;;;1.67;1.20;;;10.60;97.20;;;;;;1701929;29;20310;-67
2022/03/14 06:54:15;;;;;;;1.45;1.00;;;10.50;97.20;;;;;;1708620;28;20230;-67
2022/03/14 06:55:10;;;;;;;2.60;1.30;;;10.50;97.20;;;;;;1708498;28;20209;-67
2022/03/14 06:56:01;;;;;;;1.25;1.00;;;10.50;97.20;;;;;;1708598;28;20211;-67
2022/03/14 06:56:52;;;;;;;0.97;0.87;;;10.50;97.20;;;;;;1708589;28;20214;-67
2022/03/14 06:57:43;;;;;;;0.90;0.80;;;10.50;97.20;;;;;;1708452;28;20202;-67
2022/03/14 06:58:35;;;;;;;2.60;0.90;;;10.50;97.20;;;;;;1708193;28;20202;-67
2022/03/14 06:59:26;;;;;;;0.90;0.80;;;10.50;97.20;;;;;;1708248;28;20222;-67
2022/03/14 07:00:18;;;;;;;0.90;0.80;;;10.40;97.20;;;;;;1707665;28;20203;-67
2022/03/14 07:01:09;;;;;;;0.88;0.70;;;10.40;97.20;;;;;;1707086;29;20202;-67
2022/03/14 07:02:00;;;;;;;1.30;0.90;;;10.40;97.20;;;;;;1708480;28;20217;-67
2022/03/14 07:02:53;;;;;;;1.55;0.80;;;10.30;97.20;;;;;;1708243;28;20206;-67
2022/03/14 07:03:44;;;;;;;1.27;1.00;;;10.30;97.20;;;;;;1708367;28;20257;-67
2022/03/14 07:04:36;;;;;;;0.90;0.80;;;10.30;97.20;;;;;;1708415;28;20240;-67
2022/03/14 07:05:28;;;;;;;1.20;0.70;;;10.30;97.20;;;;;;1708243;28;20203;-67
2022/03/14 07:06:19;;;;;;;1.25;0.93;;;10.30;97.20;;;;;;1708342;28;20202;-67
2022/03/14 07:07:11;;;;;;;1.40;0.90;;;10.30;97.20;;;;;;1708346;28;20665;-67
2022/03/14 07:08:03;;;;;;;1.20;1.00;;;10.30;97.20;;;;;;1708052;28;20218;-67
2022/03/14 07:08:54;;;;;;;0.98;0.70;;;10.40;97.20;;;;;;1708300;28;20235;-67
2022/03/14 07:09:45;;;;;;;0.90;0.80;;;10.40;97.20;;;;;;1708257;28;20199;-67
2022/03/14 07:10:36;;;;;;;1.00;0.90;;;10.50;97.20;;;;;;1707203;28;20481;-67
2022/03/14 07:11:28;;;;;;;1.50;1.23;;;10.50;97.20;;;;;;1701618;29;20240;-67
2022/03/14 07:12:19;;;;;;;1.25;0.82;;;10.50;97.20;;;;;;1701758;29;20317;-67
2022/03/14 07:13:10;;;;;;;1.00;0.90;;;10.60;97.20;;;;;;1701555;29;20234;-67
2022/03/14 07:14:01;;;;;;;1.00;0.80;;;10.60;97.20;;;;;;1701894;29;20616;-67
2022/03/14 07:14:53;;;;;;;1.10;1.00;;;10.60;97.20;;;;;;1701764;29;20573;-67
2022/03/14 07:15:44;;;;;;;1.73;1.02;;;10.60;97.20;;;;;;1701630;29;20242;-67
2022/03/14 07:16:36;;;;;;;1.10;1.00;;;10.70;97.20;;;;;;1701548;29;20225;-67
2022/03/14 07:17:26;;;;;;;1.10;0.90;;;10.70;97.20;;;;;;1701605;29;20218;-67
2022/03/14 07:18:19;;;;;;;1.67;1.10;;;10.70;97.20;;;;;;1701364;29;20217;-67
2022/03/14 07:19:10;;;;;;;1.40;1.00;;;10.80;97.20;;;;;;1701576;29;20306;-67
2022/03/14 07:20:02;;;;;;;1.13;1.00;;;10.80;97.20;;;;;;1701610;29;20203;-67
2022/03/14 07:20:53;;;;;;;2.05;0.90;;;10.80;97.20;;;;;;1704241;29;20205;-67
2022/03/14 07:21:44;;;;;;;1.20;1.10;;;10.80;97.20;;;;;;1708028;28;20204;-67
2022/03/14 07:22:51;;;;;;;1.52;0.90;;;10.90;97.20;;;;;;1707640;28;20697;-67
2022/03/14 07:23:43;;;;;;;1.00;0.80;;;10.90;97.20;;;;;;1707678;28;20720;-67
2022/03/14 07:24:33;;;;;;;0.90;0.80;;;10.90;97.20;;;;;;1707855;28;20207;-68
2022/03/14 07:25:27;;;;;;;1.30;1.10;;;10.90;97.20;;;;;;1707450;28;20195;-67
2022/03/14 07:26:17;;;;;;;1.35;0.80;;;10.90;97.20;;;;;;1708094;28;20253;-67
2022/03/14 07:27:09;;;;;;;0.83;0.83;;;11.00;97.20;;;;;;1708139;28;20203;-68
2022/03/14 07:28:02;;;;;;;1.10;1.00;;;11.00;97.20;;;;;;1708219;28;20211;-68
2022/03/14 07:28:53;;;;;;;1.05;0.85;;;11.00;97.20;;;;;;1708147;28;20548;-67
2022/03/14 07:29:44;;;;;;;1.20;1.10;;;11.00;97.20;;;;;;1708105;28;20253;-67
2022/03/14 07:30:38;;;;;;;1.10;1.00;;;11.00;97.20;;;;;;1704166;28;20195;-67
2022/03/14 07:31:29;;;;;;;1.30;1.15;;;11.00;97.20;;;;;;1704688;29;20346;-67
2022/03/14 07:32:21;;;;;;;1.70;0.90;;;11.00;97.20;;;;;;1707781;28;20232;-68
2022/03/14 07:33:13;;;;;;;1.20;1.10;;;11.00;97.20;;;;;;1707651;28;20321;-67
2022/03/14 07:34:05;;;;;;;1.05;0.95;;;11.00;97.20;;;;;;1707607;28;20225;-67
2022/03/14 07:34:57;;;;;;;2.10;1.00;;;11.10;97.20;;;;;;1707539;28;20587;-67
2022/03/14 07:35:49;;;;;;;0.93;0.80;;;11.10;97.20;;;;;;1707515;28;20211;-67
2022/03/14 07:36:40;;;;;;;1.10;1.00;;;11.10;97.20;;;;;;1707495;28;20237;-68
2022/03/14 07:37:32;;;;;;;0.90;0.80;;;11.10;97.20;;;;;;1707575;28;20258;-67
2022/03/14 07:38:24;;;;;;;2.00;0.85;;;11.10;97.20;;;;;;1706749;28;20959;-67
2022/03/14 07:39:14;;;;;;;1.95;1.00;;;11.10;97.20;;;;;;1707401;28;20234;-67
2022/03/14 07:40:08;;;;;;;0.87;0.80;;;11.10;97.20;;;;;;1707285;28;20202;-67
2022/03/14 07:40:58;;;;;;;1.02;0.88;;;11.10;97.20;;;;;;1694406;29;20208;-67
2022/03/14 07:41:50;;;;;;;1.20;0.90;;;11.10;97.20;;;;;;1694449;29;20200;-67
2022/03/14 07:42:43;;;;;;;1.00;0.88;;;11.10;97.20;;;;;;1694166;29;20288;-67
2022/03/14 07:43:34;;;;;;;2.13;1.05;;;11.10;97.20;;;;;;1694332;29;20227;-67
2022/03/14 07:44:25;;;;;;;1.42;0.70;;;11.10;97.20;;;;;;1694299;29;20237;-67
2022/03/14 07:45:21;;;;;;;1.10;1.00;;;11.10;97.20;;;;;;1694431;29;20204;-67
2022/03/14 07:46:12;;;;;;;1.00;0.80;;;11.10;97.20;;;;;;1694447;29;20672;-67
2022/03/14 07:47:06;;;;;;;2.20;0.93;;;11.10;97.20;;;;;;1694621;29;20888;-67
2022/03/14 07:47:58;;;;;;;1.00;0.70;;;11.10;97.20;;;;;;1695013;29;20279;-67
2022/03/14 07:48:49;;;;;;;1.20;0.95;;;11.10;97.20;;;;;;1694711;29;20617;-67
2022/03/14 07:49:41;;;;;;;1.05;0.75;;;11.10;97.20;;;;;;1694909;29;20664;-67
2022/03/14 07:50:33;;;;;;;1.30;0.77;;;11.10;97.20;;;;;;1699494;29;20198;-67
2022/03/14 07:51:24;;;;;;;1.33;0.80;;;11.10;97.20;;;;;;1701552;29;20215;-67
2022/03/14 07:52:16;;;;;;;1.23;0.80;;;11.10;97.20;;;;;;1701717;29;20195;-67
2022/03/14 07:53:07;;;;;;;2.55;1.00;;;11.10;97.20;;;;;;1701426;29;20306;-67
2022/03/14 07:53:59;;;;;;;0.90;0.70;;;11.10;97.20;;;;;;1701564;29;20720;-67
2022/03/14 07:54:50;;;;;;;2.65;0.70;;;11.10;97.20;;;;;;1701531;29;20199;-67
2022/03/14 07:55:41;;;;;;;1.00;0.70;;;11.20;97.20;;;;;;1701565;29;20665;-67
2022/03/14 07:56:32;;;;;;;1.40;0.75;;;11.10;97.20;;;;;;1701437;29;20670;-67
2022/03/14 07:57:24;;;;;;;1.30;0.90;;;11.10;97.20;;;;;;1701484;29;20580;-67
2022/03/14 07:58:16;;;;;;;1.10;0.85;;;11.10;97.20;;;;;;1701238;29;20679;-67
2022/03/14 07:59:06;;;;;;;1.25;0.80;;;11.10;97.20;;;;;;1701458;29;20203;-67
2022/03/14 07:59:58;;;;;;;1.07;0.77;;;11.10;97.20;;;;;;1701607;29;20210;-67
2022/03/14 08:00:49;;;;;;;1.10;0.85;;;11.10;97.20;;;;;;1706465;29;20237;-67
2022/03/14 08:01:40;;;;;;;1.10;0.67;;;11.10;97.20;;;;;;1708105;28;20709;-67
2022/03/14 08:02:31;;;;;;;1.10;0.90;;;11.20;97.20;;;;;;1708028;28;20666;-67
2022/03/14 08:03:24;;;;;;;1.00;0.80;;;11.20;97.20;;;;;;1707958;28;20655;-67
2022/03/14 08:04:14;;;;;;;1.00;0.88;;;11.20;97.20;;;;;;1708067;28;20454;-67
2022/03/14 08:05:10;;;;;;;1.03;0.93;;;11.30;97.20;;;;;;1708067;28;20207;-67
2022/03/14 08:06:02;;;;;;;1.77;0.93;;;11.30;97.20;;;;;;1708108;28;20210;-67
2022/03/14 08:06:54;;;;;;;2.10;1.08;;;11.30;97.20;;;;;;1708119;28;20206;-67
2022/03/14 08:07:47;;;;;;;1.90;0.80;;;11.30;97.20;;;;;;1707992;28;20245;-67
2022/03/14 08:08:40;;;;;;;1.35;0.70;;;11.30;97.20;;;;;;1707813;28;20581;-67
2022/03/14 08:09:32;;;;;;;1.67;1.05;;;11.30;97.20;;;;;;1708055;28;20672;-67
2022/03/14 08:10:24;;;;;;;2.22;1.05;;;11.30;97.20;;;;;;1706365;28;20209;-67
2022/03/14 08:11:14;;;;;;;1.75;0.80;;;11.30;97.20;;;;;;1701448;29;20211;-66
2022/03/14 08:12:09;;;;;;;2.70;1.00;;;11.30;97.20;;;;;;1701448;29;20282;-67
2022/03/14 08:13:00;;;;;;;1.65;0.88;;;11.30;97.20;;;;;;1701308;29;20487;-67
2022/03/14 08:13:52;;;;;;;1.10;0.83;;;11.40;97.20;;;;;;1701388;29;20207;-67
2022/03/14 08:14:43;;;;;;;3.50;0.80;;;11.40;97.20;;;;;;1701516;29;20207;-67
2022/03/14 08:15:36;;;;;;;1.35;0.90;;;11.30;97.20;;;;;;1701365;29;20203;-67
2022/03/14 08:16:27;;;;;;;1.80;0.80;;;11.30;97.20;;;;;;1701366;29;20269;-67
2022/03/14 08:17:20;;;;;;;1.87;0.87;;;11.30;97.20;;;;;;1701376;29;20286;-67
2022/03/14 08:18:13;;;;;;;1.17;0.88;;;11.30;97.20;;;;;;1701041;29;20458;-67
2022/03/14 08:19:04;;;;;;;1.60;0.80;;;11.30;97.20;;;;;;1701370;29;20262;-67
2022/03/14 08:19:55;;;;;;;1.90;1.00;;;11.30;97.20;;;;;;1701387;29;20218;-67
2022/03/14 08:20:50;;;;;;;1.60;1.00;;;11.40;97.20;;;;;;1705563;29;20202;-68
2022/03/14 08:21:41;;;;;;;2.85;1.20;;;11.40;97.20;;;;;;1707983;28;20664;-67
2022/03/14 08:22:32;;;;;;;1.23;0.80;;;11.40;97.20;;;;;;1708006;28;20630;-67
2022/03/14 08:23:24;;;;;;;4.97;1.85;;;11.40;97.20;;;;;;1707921;28;20698;-67
2022/03/14 08:24:15;;;;;;;2.65;1.10;;;11.40;97.20;;;;;;1707970;28;20211;-67
2022/03/14 08:25:08;;;;;;;2.33;1.10;;;11.40;97.20;;;;;;1707904;28;20212;-67
2022/03/14 08:26:00;;;;;;;2.40;0.93;;;11.50;97.20;;;;;;1707972;28;20207;-67
2022/03/14 08:26:53;;;;;;;1.17;0.80;;;11.50;97.20;;;;;;1707932;28;20210;-67
2022/03/14 08:27:44;;;;;;;1.45;1.20;;;11.50;97.20;;;;;;1707850;28;20207;-67
2022/03/14 08:28:35;;;;;;;3.22;1.08;;;11.50;97.20;;;;;;1707560;28;20242;-67
2022/03/14 08:29:27;;;;;;;6.90;2.30;;;11.50;97.20;;;;;;1707789;28;20198;-67
2022/03/14 08:30:20;;;;;;;1.60;1.00;;;11.50;97.20;;;;;;1707327;28;20610;-67
2022/03/14 08:31:14;;;;;;;3.22;1.00;;;11.40;97.20;;;;;;1701302;29;20200;-67
2022/03/14 08:32:06;;;;;;;3.80;1.00;;;11.40;97.20;;;;;;1701318;29;20207;-67
2022/03/14 08:32:59;;;;;;;2.55;1.15;;;11.40;97.20;;;;;;1701197;29;20258;-67
2022/03/14 08:33:51;;;;;;;1.48;0.90;;;11.40;97.20;;;;;;1701241;29;20203;-67
2022/03/14 08:34:43;;;;;;;3.78;1.25;;;11.40;97.20;;;;;;1701306;29;20203;-67
2022/03/14 08:35:34;;;;;;;2.47;0.90;;;11.40;97.20;;;;;;1701298;29;20211;-67
2022/03/14 08:36:27;;;;;;;2.65;1.20;;;11.40;97.20;;;;;;1701271;29;20693;-67
2022/03/14 08:37:18;;;;;;;2.47;0.90;;;11.40;97.20;;;;;;1701265;29;20270;-67
2022/03/14 08:38:12;;;;;;;2.30;0.97;;;11.40;97.20;;;;;;1700984;29;20243;-67
2022/03/14 08:39:03;;;;;;;2.80;1.10;;;11.40;97.20;;;;;;1701286;29;20498;-67
2022/03/14 08:39:55;;;;;;;1.97;0.80;;;11.40;97.20;;;;;;1701172;29;20223;-67
2022/03/14 08:40:46;;;;;;;2.92;0.95;;;11.40;97.20;;;;;;1704820;29;20478;-67
2022/03/14 08:41:37;;;;;;;2.50;1.05;;;11.40;97.20;;;;;;1707920;28;20264;-67
2022/03/14 08:42:29;;;;;;;2.47;1.10;;;11.40;97.20;;;;;;1706667;28;20206;-67
2022/03/14 08:43:20;;;;;;;2.08;0.98;;;11.50;97.20;;;;;;1707830;28;20265;-67
2022/03/14 08:44:12;;;;;;;1.67;0.90;;;11.50;97.20;;;;;;1707834;28;20202;-67
2022/03/14 08:45:05;;;;;;;1.38;0.80;;;11.50;97.20;;;;;;1707855;28;20665;-67
2022/03/14 08:45:55;;;;;;;2.35;1.00;;;11.50;97.20;;;;;;1707877;28;20218;-67
2022/03/14 08:46:47;;;;;;;2.00;0.77;;;11.50;97.20;;;;;;1707769;28;20281;-67
2022/03/14 08:47:38;;;;;;;2.58;0.93;;;11.50;97.20;;;;;;1707819;28;20453;-67
2022/03/14 08:48:30;;;;;;;2.43;0.90;;;11.50;97.20;;;;;;1707503;28;20675;-67
2022/03/14 08:49:20;;;;;;;2.53;0.90;;;11.60;97.20;;;;;;1707755;28;20578;-67
2022/03/14 08:50:14;;;;;;;1.37;0.80;;;11.60;97.20;;;;;;1707191;28;20648;-67
2022/03/14 08:51:06;;;;;;;1.20;0.80;;;11.50;97.20;;;;;;1701024;29;20206;-67
2022/03/14 08:51:58;;;;;;;2.00;0.90;;;11.50;97.20;;;;;;1701126;29;20242;-67
2022/03/14 08:52:52;;;;;;;1.33;0.73;;;11.50;97.20;;;;;;1701050;29;20210;-67
2022/03/14 08:53:43;;;;;;;3.65;1.20;;;11.50;97.20;;;;;;1701073;29;20204;-67
2022/03/14 08:54:35;;;;;;;1.30;0.80;;;11.50;97.20;;;;;;1701203;29;20278;-67
2022/03/14 08:55:26;;;;;;;7.20;0.95;;;11.50;97.20;;;;;;1701138;29;20203;-67
2022/03/14 08:56:18;;;;;;;2.20;0.90;;;11.60;97.20;;;;;;1701218;29;20244;-67
2022/03/14 08:57:09;;;;;;;1.52;0.98;;;11.60;97.20;;;;;;1700972;29;20203;-67
2022/03/14 08:58:02;;;;;;;2.13;1.00;;;11.70;97.20;;;;;;1701007;29;20794;-67
2022/03/14 08:58:53;;;;;;;1.83;0.90;;;11.70;97.20;;;;;;1701137;29;20689;-67
2022/03/14 08:59:45;;;;;;;2.33;0.90;;;11.80;97.20;;;;;;1701060;29;20734;-67
2022/03/14 09:00:36;;;;;;;1.90;0.80;;;11.80;97.20;;;;;;1702958;29;20666;-67
2022/03/14 09:01:28;;;;;;;2.25;1.10;;;11.90;97.20;;;;;;1707647;29;20198;-67
2022/03/14 09:02:19;;;;;;;2.03;0.90;;;11.90;97.20;;;;;;1707707;28;20230;-67
2022/03/14 09:03:10;;;;;;;1.67;0.80;;;11.90;97.20;;;;;;1707689;28;20237;-67
2022/03/14 09:04:01;;;;;;;2.03;1.48;;;12.00;97.20;;;;;;1707687;28;20619;-67
2022/03/14 09:04:53;;;;;;;2.40;1.30;;;12.10;97.20;;;;;;1707771;28;20630;-67
2022/03/14 09:05:46;;;;;;;1.90;0.90;;;12.20;97.20;;;;;;1707667;28;20668;-67
2022/03/14 09:06:37;;;;;;;1.35;0.80;;;12.30;97.20;;;;;;1707733;28;20689;-67
2022/03/14 09:07:31;;;;;;;2.33;0.97;;;12.30;97.20;;;;;;1707774;28;20628;-67
2022/03/14 09:08:24;;;;;;;2.55;0.93;;;12.40;97.20;;;;;;1707375;28;20230;-67
2022/03/14 09:09:14;;;;;;;2.00;1.00;;;12.40;97.20;;;;;;1707631;28;20293;-67
2022/03/14 09:10:08;;;;;;;1.27;0.90;;;12.50;97.20;;;;;;1707616;28;20207;-67
2022/03/14 09:11:01;;;;;;;1.63;1.10;;;12.50;97.20;;;;;;1702487;28;20200;-67
2022/03/14 09:11:52;;;;;;;4.30;1.27;;;12.50;97.20;;;;;;1701090;29;20579;-67
2022/03/14 09:12:43;;;;;;;2.60;1.15;;;12.50;97.20;;;;;;1700917;29;20214;-67
2022/03/14 09:13:35;;;;;;;2.17;1.10;;;12.50;97.20;;;;;;1701138;29;20233;-67
2022/03/14 09:14:26;;;;;;;2.53;1.00;;;12.50;97.20;;;;;;1701006;29;20239;-67
2022/03/14 09:15:19;;;;;;;5.47;1.20;;;12.50;97.20;;;;;;1701035;29;20210;-67
2022/03/14 09:16:11;;;;;;;3.38;1.00;;;12.60;97.20;;;;;;1701074;29;20455;-67
2022/03/14 09:17:03;;;;;;;2.78;1.23;;;12.70;97.20;;;;;;1700935;29;20215;-67
2022/03/14 09:17:59;;;;;;;2.30;1.30;;;12.70;97.20;;;;;;1700991;29;20203;-67
2022/03/14 09:18:50;;;;;;;2.40;1.10;;;12.80;97.20;;;;;;1700770;29;20215;-67
2022/03/14 09:19:41;;;;;;;2.70;1.37;;;12.90;97.20;;;;;;1700946;29;20199;-67
2022/03/14 09:20:39;;;;;;;2.03;1.00;;;13.00;97.20;;;;;;1701960;29;20458;-67
2022/03/14 09:21:32;;;;;;;3.28;1.50;;;13.00;97.20;;;;;;1707422;28;20673;-67
2022/03/14 09:22:24;;;;;;;1.85;1.10;;;13.10;97.20;;;;;;1706967;28;20198;-67
2022/03/14 09:23:20;;;;;;;2.72;1.17;;;13.10;97.20;;;;;;1701009;29;20769;-67
2022/03/14 09:24:11;;;;;;;3.70;1.50;;;13.20;97.20;;;;;;1701052;29;20645;-67
2022/03/14 09:25:02;;;;;;;3.27;1.30;;;13.30;97.20;;;;;;1700940;29;20226;-67
2022/03/14 09:25:55;;;;;;;5.65;2.10;;;13.40;97.20;;;;;;1701070;29;20207;-67
2022/03/14 09:26:46;;;;;;;2.88;1.30;;;13.60;97.20;;;;;;1700934;29;20206;-67
2022/03/14 09:27:37;;;;;;;3.83;1.52;;;13.80;97.20;;;;;;1701029;29;20686;-67
2022/03/14 09:28:29;;;;;;;5.47;1.80;;;14.00;97.20;;;;;;1700770;29;20570;-67
2022/03/14 09:29:20;;;;;;;1.90;1.20;;;14.20;97.20;;;;;;1701037;29;20294;-67
2022/03/14 09:30:14;;;;;;;2.55;1.50;;;14.50;97.20;;;;;;1701052;29;20215;-67
2022/03/14 09:31:05;;;;;;;2.33;1.33;;;14.70;97.20;;;;;;1705959;29;20202;-67
2022/03/14 09:31:57;;;;;;;1.80;0.90;;;15.00;97.20;;;;;;1707610;28;20202;-67
2022/03/14 09:32:49;;;;;;;3.35;1.60;;;15.20;97.20;;;;;;1707621;28;20202;-67
2022/03/14 09:33:40;;;;;;;2.78;1.05;;;15.50;97.20;;;;;;1707559;28;20202;-68
2022/03/14 09:34:36;;;;;;;2.07;0.90;;;15.70;97.20;;;;;;1707198;28;20201;-67
2022/03/14 09:35:28;;;;;;;2.97;1.10;;;15.80;97.20;;;;;;1694366;29;20244;-67
2022/03/14 09:36:19;;;;;;;5.13;1.35;;;16.00;97.20;;;;;;1694421;29;20215;-68
2022/03/14 09:37:11;;;;;;;2.17;0.90;;;16.10;97.20;;;;;;1694361;29;20212;-67
2022/03/14 09:38:02;;;;;;;3.05;1.13;;;16.30;97.20;;;;;;1693996;29;20232;-68
2022/03/14 09:38:55;;;;;;;4.13;1.50;;;16.40;97.20;;;;;;1694416;29;20204;-68
2022/03/14 09:39:46;;;;;;;2.85;0.90;;;16.60;97.20;;;;;;1694205;29;20455;-68
2022/03/14 09:40:38;;;;;;;1.30;0.90;;;16.70;97.20;;;;;;1694505;29;20251;-67
2022/03/14 09:41:32;;;;;;;3.80;1.30;;;16.80;97.20;;;;;;1694322;29;20204;-67
2022/03/14 09:42:25;;;;;;;1.60;0.98;;;16.90;97.20;;;;;;1694397;29;20695;-67
2022/03/14 09:43:17;;;;;;;2.65;1.30;;;17.00;97.20;;;;;;1694483;29;20608;-67
2022/03/14 09:44:10;;;;;;;2.83;1.10;;;17.10;97.20;;;;;;1694399;29;20211;-67
2022/03/14 09:45:02;;;;;;;3.78;1.05;;;17.20;97.20;;;;;;1700747;29;20199;-67
2022/03/14 09:45:55;;;;;;;2.10;0.82;;;17.30;97.20;;;;;;1707703;28;20578;-68
2022/03/14 09:46:47;;;;;;;2.85;1.20;;;17.30;97.20;;;;;;1707427;28;20644;-67
2022/03/14 09:47:41;;;;;;;3.65;1.23;;;17.30;96.90;;;;;;1707531;28;20304;-68
2022/03/14 09:48:36;;;;;;;3.47;0.90;;;17.20;97.00;;;;;;1707205;28;20237;-68
2022/03/14 09:49:29;;;;;;;3.10;1.10;;;17.10;96.30;;;;;;1707384;28;20202;-68
2022/03/14 09:50:26;;;;;;;3.05;1.20;;;17.10;96.90;;;;;;1707543;28;20202;-67
2022/03/14 09:51:17;;;;;;;2.60;1.40;;;17.10;97.10;;;;;;1707620;28;20241;-67
2022/03/14 09:52:10;;;;;;;1.90;1.10;;;17.20;97.20;;;;;;1707425;28;20289;-68
2022/03/14 09:53:03;;;;;;;1.67;1.00;;;17.40;97.20;;;;;;1707430;28;20222;-67
2022/03/14 09:53:57;;;;;;;1.95;1.00;;;17.50;97.20;;;;;;1707424;28;20286;-67
2022/03/14 09:54:48;;;;;;;2.83;1.20;;;17.50;95.60;;;;;;1706743;28;20239;-67
2022/03/14 09:55:43;;;;;;;3.67;1.50;;;17.50;95.30;;;;;;1700780;29;20593;-68
2022/03/14 09:56:34;;;;;;;3.33;0.80;;;17.40;95.60;;;;;;1700863;29;20211;-67
2022/03/14 09:57:26;;;;;;;3.50;1.00;;;17.20;95.10;;;;;;1700692;29;20238;-68
2022/03/14 09:58:18;;;;;;;2.38;1.35;;;17.10;95.60;;;;;;1700492;29;20489;-68
2022/03/14 09:59:12;;;;;;;4.20;1.15;;;16.90;95.60;;;;;;1700831;29;20251;-68
2022/03/14 10:00:05;;;;;;;3.55;1.67;;;16.70;95.60;;;;;;1700791;29;20218;-67
2022/03/14 10:01:02;;;;;;;1.98;1.00;;;16.60;96.10;;;;;;1700745;29;20652;-67
2022/03/14 10:01:54;;;;;;;2.97;1.10;;;16.60;96.30;;;;;;1700520;29;20215;-67
2022/03/14 10:02:46;;;;;;;2.67;1.40;;;16.60;96.70;;;;;;1700690;29;20663;-68
2022/03/14 10:03:37;;;;;;;1.50;1.00;;;16.70;96.80;;;;;;1700800;29;20743;-68
2022/03/14 10:04:29;;;;;;;4.50;1.27;;;16.80;96.50;;;;;;1700828;29;20738;-68
2022/03/14 10:05:20;;;;;;;2.50;1.10;;;17.00;96.30;;;;;;1705093;29;20237;-67
2022/03/14 10:06:11;;;;;;;2.67;1.43;;;17.10;96.40;;;;;;1707440;28;20658;-68
2022/03/14 10:07:02;;;;;;;2.53;1.15;;;17.20;95.50;;;;;;1707322;28;20966;-67
2022/03/14 10:07:54;;;;;;;2.30;1.03;;;17.40;96.00;;;;;;1707095;28;20587;-68
2022/03/14 10:08:45;;;;;;;4.90;1.20;;;17.60;95.20;;;;;;1706960;28;20444;-67
2022/03/14 10:09:38;;;;;;;2.83;1.57;;;17.80;94.60;;;;;;1707313;28;20205;-68
2022/03/14 10:10:30;;;;;;;2.50;1.08;;;17.90;94.40;;;;;;1707353;28;20615;-68
2022/03/14 10:11:22;;;;;;;1.60;1.10;;;18.10;94.20;;;;;;1707337;28;20210;-68
2022/03/14 10:12:18;;;;;;;2.43;1.30;;;18.20;93.50;;;;;;1707351;28;20206;-67
2022/03/14 10:13:10;;;;;;;3.90;1.10;;;18.30;92.80;;;;;;1707224;28;20277;-67
2022/03/14 10:14:03;;;;;;;2.58;1.13;;;18.30;92.10;;;;;;1707355;28;20576;-67
2022/03/14 10:14:54;;;;;;;2.95;1.30;;;18.40;91.70;;;;;;1706319;28;20230;-68
2022/03/14 10:15:45;;;;;;;2.10;1.02;;;18.40;90.50;;;;;;1700718;29;20722;-68
2022/03/14 10:16:37;;;;;;;3.55;1.10;;;18.40;90.70;;;;;;1700819;29;20266;-67
2022/03/14 10:17:28;;;;;;;2.55;0.90;;;18.40;91.00;;;;;;1700723;29;20614;-67
2022/03/14 10:18:20;;;;;;;3.60;1.03;;;18.50;91.40;;;;;;1700283;29;20608;-68
2022/03/14 10:19:13;;;;;;;2.10;1.08;;;18.50;91.10;;;;;;1700759;29;20454;-68
2022/03/14 10:20:07;;;;;;;3.70;1.20;;;18.60;91.00;;;;;;1700676;29;20202;-68
2022/03/14 10:21:05;;;;;;;5.22;1.70;;;18.70;90.70;;;;;;1700742;29;20218;-68
2022/03/14 10:21:57;;;;;;;1.63;0.90;;;18.90;90.70;;;;;;1700725;29;20261;-67
2022/03/14 10:22:49;;;;;;;2.67;1.00;;;19.00;90.60;;;;;;1700570;29;20602;-68
2022/03/14 10:23:43;;;;;;;2.33;1.08;;;19.20;90.80;;;;;;1700687;29;20202;-68
2022/03/14 10:24:34;;;;;;;3.72;1.33;;;19.40;90.80;;;;;;1700822;29;20203;-68
2022/03/14 10:25:30;;;;;;;5.15;1.02;;;19.60;90.50;;;;;;1705194;29;20187;-68
2022/03/14 10:26:25;;;;;;;4.43;1.60;;;19.80;90.90;;;;;;1707289;28;20206;-67
2022/03/14 10:27:19;;;;;;;2.70;1.30;;;20.00;89.90;;;;;;1707345;28;20208;-69
2022/03/14 10:28:11;;;;;;;3.13;1.10;;;20.10;88.70;;;;;;1706973;28;20694;-68
2022/03/14 10:29:03;;;;;;;2.35;1.00;;;20.20;88.00;;;;;;1707304;28;20337;-67
2022/03/14 10:29:55;;;;;;;2.00;1.02;;;20.30;87.70;;;;;;1707290;28;20237;-68
2022/03/14 10:30:47;;;;;;;2.75;1.58;;;20.30;87.30;;;;;;1707225;28;20659;-68
2022/03/14 10:31:41;;;;;;;4.43;1.27;;;20.40;87.10;;;;;;1707274;28;20203;-68